Time;durP1;ratioP1;P1;durP2;ratioP2;P2;SDS_P1;SDS_P2;PMS_P1;PMS_P2;Temp;Humidity;BMP_temperature;BMP_pressure;BME280_temperature;BME280_humidity;BME280_pressure;Samples;Min_cycle;Max_cycle;Signal;HPM_P1;HPM_P2
2022/03/15 00:01:51;;;;;;;58.20;29.40;;;;;;;1.66;56.71;101924.64;84708;1327;22585;-73
2022/03/15 00:03:59;;;;;;;52.60;29.40;;;;;;;1.63;56.91;101924.56;84812;1326;22605;-75
2022/03/15 00:06:08;;;;;;;50.20;28.70;;;;;;;1.59;56.96;101917.92;84764;1327;22582;-74
2022/03/15 00:08:19;;;;;;;52.10;28.10;;;;;;;1.58;56.90;101917.54;84732;1331;22586;-75
2022/03/15 00:10:27;;;;;;;51.60;29.10;;;;;;;1.56;56.98;101916.48;84807;1326;22676;-70
2022/03/15 00:12:36;;;;;;;52.50;30.80;;;;;;;1.55;57.16;101914.73;84811;1322;22777;-69
2022/03/15 00:14:44;;;;;;;52.80;28.70;;;;;;;1.52;57.07;101918.98;84789;1327;22577;-70
2022/03/15 00:16:55;;;;;;;50.90;29.10;;;;;;;1.48;57.39;101915.43;84792;1325;22572;-68
2022/03/15 00:19:05;;;;;;;54.30;29.40;;;;;;;1.46;57.42;101916.08;84774;1323;22612;-75
2022/03/15 00:21:16;;;;;;;55.70;28.80;;;;;;;1.44;57.14;101914.14;84800;1326;22607;-76
2022/03/15 00:23:25;;;;;;;48.80;27.90;;;;;;;1.41;57.35;101915.08;84809;1327;22618;-75
2022/03/15 00:25:36;;;;;;;46.40;27.30;;;;;;;1.35;57.45;101910.13;84778;1325;22933;-75
2022/03/15 00:27:45;;;;;;;53.80;31.60;;;;;;;1.30;57.29;101909.67;84790;1327;23959;-75
2022/03/15 00:29:56;;;;;;;58.40;30.80;;;;;;;1.26;57.61;101911.97;84819;1327;22639;-75
2022/03/15 00:32:09;;;;;;;53.60;29.10;;;;;;;1.21;57.52;101912.87;84813;1324;25993;-75
2022/03/15 00:34:17;;;;;;;54.80;30.50;;;;;;;1.13;57.63;101906.66;84807;1323;22809;-74
2022/03/15 00:36:30;;;;;;;52.50;30.30;;;;;;;1.06;58.03;101902.00;84805;1322;22613;-73
2022/03/15 00:38:41;;;;;;;51.70;29.10;;;;;;;1.01;58.08;101897.08;84785;1326;22583;-76
2022/03/15 00:40:50;;;;;;;55.10;30.10;;;;;;;0.99;58.29;101897.20;84807;1328;23918;-76
2022/03/15 00:42:58;;;;;;;61.20;31.20;;;;;;;0.97;58.36;101894.39;84782;1327;25460;-75
2022/03/15 00:45:11;;;;;;;54.60;32.20;;;;;;;0.95;58.34;101895.37;84066;1327;1003487;-75
2022/03/15 00:47:20;;;;;;;60.80;31.70;;;;;;;0.91;58.99;101898.38;84094;1328;1003191;-75
2022/03/15 00:49:28;;;;;;;58.30;29.80;;;;;;;0.90;58.68;101900.73;84816;1326;22581;-75
2022/03/15 00:51:37;;;;;;;53.60;30.20;;;;;;;0.88;58.88;101891.77;84810;1325;22590;-76
2022/03/15 00:53:46;;;;;;;54.90;30.50;;;;;;;0.89;58.75;101894.02;84766;1326;22675;-75
2022/03/15 00:55:54;;;;;;;59.00;31.20;;;;;;;0.89;59.06;101895.39;84098;1324;1003273;-68
2022/03/15 00:58:03;;;;;;;55.30;30.80;;;;;;;0.87;58.83;101894.31;84051;1326;1003360;-68
2022/03/15 01:00:17;;;;;;;58.60;31.30;;;;;;;0.86;59.05;101900.81;84101;1325;1003842;-70
2022/03/15 01:02:26;;;;;;;61.10;33.60;;;;;;;0.83;59.01;101896.10;84759;1321;25371;-68
2022/03/15 01:04:34;;;;;;;53.20;29.00;;;;;;;0.79;59.12;101893.23;84803;1326;22607;-70
2022/03/15 01:06:43;;;;;;;59.60;29.30;;;;;;;0.76;59.40;101901.24;84797;1325;23053;-68
2022/03/15 01:08:54;;;;;;;58.20;29.20;;;;;;;0.76;59.26;101902.27;84805;1327;22603;-72
2022/03/15 01:11:05;;;;;;;61.90;31.30;;;;;;;0.76;59.39;101898.16;84731;1327;22794;-68
2022/03/15 01:13:16;;;;;;;66.40;31.50;;;;;;;0.74;59.14;101897.08;84760;1330;22601;-69
2022/03/15 01:15:29;;;;;;;52.20;29.10;;;;;;;0.71;59.20;101898.52;84801;1327;25296;-75
2022/03/15 01:17:37;;;;;;;55.30;30.50;;;;;;;0.66;59.39;101896.84;84743;1327;22608;-75
2022/03/15 01:19:45;;;;;;;59.90;30.80;;;;;;;0.62;59.43;101893.98;84788;1326;22618;-74
2022/03/15 01:21:54;;;;;;;56.60;28.90;;;;;;;0.55;59.63;101894.66;84786;1327;25439;-76
2022/03/15 01:24:03;;;;;;;53.80;29.80;;;;;;;0.47;59.49;101897.37;84777;1328;23955;-68
2022/03/15 01:26:13;;;;;;;55.80;31.60;;;;;;;0.44;60.06;101895.73;84812;1326;22602;-67
2022/03/15 01:28:22;;;;;;;58.60;30.00;;;;;;;0.37;59.83;101894.66;84808;1325;26515;-69
2022/03/15 01:30:30;;;;;;;62.30;33.90;;;;;;;0.33;60.20;101893.35;84098;1327;1003541;-70
2022/03/15 01:32:39;;;;;;;56.30;29.80;;;;;;;0.29;60.15;101890.16;84804;1326;22580;-68
2022/03/15 01:34:47;;;;;;;61.30;31.90;;;;;;;0.26;60.32;101891.45;84838;1327;22587;-75
2022/03/15 01:36:59;;;;;;;59.70;32.10;;;;;;;0.23;60.20;101891.71;84808;1326;23914;-74
2022/03/15 01:39:11;;;;;;;59.40;31.50;;;;;;;0.19;60.56;101892.61;84815;1330;23928;-69
2022/03/15 01:41:24;;;;;;;64.70;31.60;;;;;;;0.11;60.37;101890.32;84792;1322;22651;-69
2022/03/15 01:43:33;;;;;;;60.10;29.20;;;;;;;0.05;60.57;101894.45;84785;1322;22623;-68
2022/03/15 01:45:42;;;;;;;52.40;29.80;;;;;;;-0.01;60.61;101891.17;84831;1326;22599;-69
2022/03/15 01:47:51;;;;;;;58.20;32.70;;;;;;;-0.09;60.83;101891.96;84799;1321;22647;-68
2022/03/15 01:49:59;;;;;;;58.60;31.20;;;;;;;-0.16;61.04;101897.59;84778;1326;23849;-73
2022/03/15 01:52:08;;;;;;;60.60;30.70;;;;;;;-0.25;61.15;101892.69;84814;1327;22583;-76
2022/03/15 01:54:17;;;;;;;46.70;25.50;;;;;;;-0.33;61.14;101890.04;84774;1327;22660;-75
2022/03/15 01:56:25;;;;;;;55.40;31.40;;;;;;;-0.40;61.32;101892.73;84758;1327;22599;-74
2022/03/15 01:58:36;;;;;;;66.10;32.00;;;;;;;-0.44;61.46;101895.69;84782;1322;22727;-76
2022/03/15 02:00:45;;;;;;;61.40;29.50;;;;;;;-0.48;61.79;101892.83;84802;1323;22632;-69
2022/03/15 02:02:55;;;;;;;55.60;29.30;;;;;;;-0.52;61.75;101898.70;84792;1327;22899;-68
2022/03/15 02:05:02;;;;;;;;;;;;;;;-0.57;62.07;101904.55;84865;1329;22654;-76
2022/03/15 02:07:12;;;;;;;49.90;29.90;;;;;;;-0.65;62.24;101896.56;84779;1322;22783;-74
2022/03/15 02:09:20;;;;;;;52.00;29.10;;;;;;;-0.66;62.48;101898.23;84791;1327;22606;-70
2022/03/15 02:11:32;;;;;;;58.80;30.60;;;;;;;-0.68;62.49;101894.95;84848;1328;22606;-69
2022/03/15 02:13:47;;;;;;;62.90;31.40;;;;;;;-0.67;62.84;101889.13;84781;1330;25464;-70
2022/03/15 02:15:58;;;;;;;61.10;32.30;;;;;;;-0.67;62.76;101891.89;84786;1327;22704;-69
2022/03/15 02:18:06;;;;;;;52.90;31.50;;;;;;;-0.68;62.66;101885.52;84778;1328;24264;-70
2022/03/15 02:20:16;;;;;;;53.20;30.00;;;;;;;-0.68;62.82;101887.05;84824;1328;22596;-74
2022/03/15 02:22:25;;;;;;;62.40;32.40;;;;;;;-0.72;62.78;101886.06;84795;1325;22748;-76
2022/03/15 02:24:34;;;;;;;57.30;30.30;;;;;;;-0.78;62.76;101886.55;84791;1326;22589;-69
2022/03/15 02:26:45;;;;;;;62.50;31.50;;;;;;;-0.84;62.98;101882.77;84769;1327;22782;-68
2022/03/15 02:28:53;;;;;;;60.50;31.70;;;;;;;-0.90;62.98;101879.98;84834;1328;23219;-74
2022/03/15 02:31:02;;;;;;;57.30;32.10;;;;;;;-0.97;63.18;101878.55;84806;1322;22576;-75
2022/03/15 02:33:10;;;;;;;60.50;34.00;;;;;;;-1.02;63.27;101876.16;84069;1327;1002962;-74
2022/03/15 02:35:18;;;;;;;62.60;33.40;;;;;;;-1.05;63.80;101879.86;84822;1325;23961;-72
2022/03/15 02:37:26;;;;;;;65.20;32.50;;;;;;;-1.04;63.71;101878.35;84779;1327;22590;-75
2022/03/15 02:39:35;;;;;;;60.90;31.10;;;;;;;-1.03;63.50;101876.84;84100;1318;1003012;-75
2022/03/15 02:41:43;;;;;;;66.70;33.50;;;;;;;-1.03;63.67;101878.02;84804;1326;23837;-75
2022/03/15 02:43:56;;;;;;;56.20;30.20;;;;;;;-1.03;63.91;101886.44;84744;1327;25444;-73
2022/03/15 02:46:07;;;;;;;58.30;31.30;;;;;;;-1.04;63.65;101887.05;84050;1327;1003618;-68
2022/03/15 02:48:15;;;;;;;58.60;30.90;;;;;;;-1.06;63.64;101880.15;84777;1327;22609;-69
2022/03/15 02:50:24;;;;;;;55.60;32.20;;;;;;;-1.06;63.84;101882.73;84755;1326;22613;-69
2022/03/15 02:52:36;;;;;;;53.40;31.00;;;;;;;-1.06;63.92;101882.39;84703;1327;22807;-68
2022/03/15 02:54:47;;;;;;;57.70;29.90;;;;;;;-1.07;63.84;101883.20;84784;1327;22754;-69
2022/03/15 02:56:55;;;;;;;57.40;30.90;;;;;;;-1.10;64.02;101883.26;84799;1326;22606;-69
2022/03/15 02:59:04;;;;;;;57.90;30.90;;;;;;;-1.14;64.08;101885.87;84769;1326;23959;-68
2022/03/15 03:01:12;;;;;;;61.40;33.10;;;;;;;-1.17;64.20;101885.42;84785;1328;22620;-69
2022/03/15 03:03:22;;;;;;;61.60;32.00;;;;;;;-1.23;64.16;101885.55;84718;1327;22580;-68
2022/03/15 03:05:31;;;;;;;57.70;32.10;;;;;;;-1.29;64.24;101888.11;84786;1327;22594;-69
2022/03/15 03:07:40;;;;;;;59.60;35.40;;;;;;;-1.35;64.25;101892.54;84775;1320;22593;-69
2022/03/15 03:09:48;;;;;;;67.60;34.20;;;;;;;-1.37;64.56;101895.85;84727;1327;22590;-68
2022/03/15 03:11:57;;;;;;;60.10;32.50;;;;;;;-1.43;64.65;101893.07;84715;1330;22746;-69
2022/03/15 03:14:06;;;;;;;59.60;29.50;;;;;;;-1.49;64.93;101891.83;84715;1327;23789;-74
2022/03/15 03:16:16;;;;;;;59.70;33.00;;;;;;;-1.56;64.88;101889.88;84765;1327;22648;-75
2022/03/15 03:18:25;;;;;;;57.20;31.40;;;;;;;-1.61;65.07;101897.73;84723;1327;22579;-75
2022/03/15 03:20:36;;;;;;;58.40;31.00;;;;;;;-1.64;65.14;101902.62;84810;1325;22554;-68
2022/03/15 03:22:45;;;;;;;56.20;32.00;;;;;;;-1.65;65.47;101906.50;84763;1330;22916;-68
2022/03/15 03:24:54;;;;;;;58.90;32.60;;;;;;;-1.68;65.38;101908.81;84812;1327;22873;-75
2022/03/15 03:27:07;;;;;;;55.30;29.70;;;;;;;-1.68;65.43;101908.09;84786;1318;24286;-75
2022/03/15 03:29:16;;;;;;;55.90;30.70;;;;;;;-1.69;65.59;101905.02;84777;1326;25447;-68
2022/03/15 03:31:24;;;;;;;63.70;31.40;;;;;;;-1.68;65.71;101904.70;84770;1327;23866;-69
2022/03/15 03:33:33;;;;;;;69.40;33.50;;;;;;;-1.67;65.76;101898.38;84786;1329;24301;-69
2022/03/15 03:35:45;;;;;;;59.00;31.80;;;;;;;-1.68;65.77;101900.58;84740;1327;25478;-76
2022/03/15 03:37:53;;;;;;;63.00;31.90;;;;;;;-1.71;65.90;101900.80;84716;1327;24006;-76
2022/03/15 03:40:07;;;;;;;58.10;31.30;;;;;;;-1.75;65.85;101903.21;84125;1326;1003294;-69
2022/03/15 03:42:15;;;;;;;55.50;30.60;;;;;;;-1.80;65.94;101899.61;84709;1327;23988;-69
2022/03/15 03:44:23;;;;;;;63.40;31.60;;;;;;;-1.83;66.20;101896.11;84724;1328;22915;-70
2022/03/15 03:46:32;;;;;;;56.70;32.80;;;;;;;-1.85;66.18;101898.42;84736;1327;22587;-68
2022/03/15 03:48:44;;;;;;;66.70;33.30;;;;;;;-1.88;66.38;101902.91;84711;1325;22918;-68
2022/03/15 03:50:52;;;;;;;60.00;32.70;;;;;;;-1.94;66.34;101901.15;84774;1327;22606;-68
2022/03/15 03:53:04;;;;;;;63.60;32.90;;;;;;;-1.97;66.37;101897.26;84728;1324;22838;-68
2022/03/15 03:55:13;;;;;;;58.00;32.50;;;;;;;-2.02;66.79;101899.30;84070;1327;1003396;-74
2022/03/15 03:57:22;;;;;;;59.60;32.60;;;;;;;-2.08;66.59;101897.21;84077;1324;1003881;-75
2022/03/15 03:59:31;;;;;;;61.80;32.50;;;;;;;-2.10;66.84;101891.85;84800;1323;22613;-69
2022/03/15 04:01:42;;;;;;;60.00;33.30;;;;;;;-2.10;67.02;101896.44;84754;1326;22808;-69
2022/03/15 04:03:54;;;;;;;52.20;28.60;;;;;;;-2.09;67.09;101899.08;84703;1327;24218;-71
2022/03/15 04:06:02;;;;;;;57.20;31.10;;;;;;;-2.05;67.14;101898.35;84786;1322;23069;-75
2022/03/15 04:08:13;;;;;;;57.90;29.60;;;;;;;-2.01;67.02;101892.86;84764;1328;23876;-73
2022/03/15 04:10:25;;;;;;;57.50;30.70;;;;;;;-1.96;67.12;101895.27;84764;1324;22697;-73
2022/03/15 04:12:34;;;;;;;61.30;32.00;;;;;;;-1.92;67.19;101896.23;84744;1326;23179;-75
2022/03/15 04:14:45;;;;;;;58.90;30.60;;;;;;;-1.90;67.13;101895.66;84801;1325;25048;-74
2022/03/15 04:16:54;;;;;;;65.20;31.30;;;;;;;-1.87;66.96;101895.77;84778;1330;24409;-74
2022/03/15 04:19:02;;;;;;;59.40;31.40;;;;;;;-1.86;67.00;101892.56;84707;1327;23121;-69
2022/03/15 04:21:11;;;;;;;60.00;30.40;;;;;;;-1.84;66.80;101893.50;84707;1329;22702;-69
2022/03/15 04:23:19;;;;;;;67.40;32.60;;;;;;;-1.81;66.80;101892.59;84793;1323;22599;-68
2022/03/15 04:25:30;;;;;;;61.50;30.60;;;;;;;-1.79;66.72;101889.02;84764;1327;22616;-75
2022/03/15 04:27:39;;;;;;;60.80;30.50;;;;;;;-1.78;66.59;101891.30;84776;1327;22598;-75
2022/03/15 04:29:50;;;;;;;60.60;32.30;;;;;;;-1.77;66.54;101884.84;84734;1327;25508;-76
2022/03/15 04:31:58;;;;;;;64.60;31.50;;;;;;;-1.78;66.40;101882.77;84790;1327;22593;-75
2022/03/15 04:34:07;;;;;;;62.60;31.80;;;;;;;-1.78;66.31;101878.46;84694;1327;22824;-75
2022/03/15 04:36:16;;;;;;;60.00;31.90;;;;;;;-1.79;66.41;101878.77;84000;1327;1003446;-76
2022/03/15 04:38:26;;;;;;;60.90;30.90;;;;;;;-1.81;66.26;101880.95;84811;1326;22615;-76
2022/03/15 04:40:39;;;;;;;60.00;32.60;;;;;;;-1.83;66.35;101879.52;84756;1329;24175;-69
2022/03/15 04:42:48;;;;;;;54.80;28.90;;;;;;;-1.83;66.32;101885.65;84771;1327;22584;-69
2022/03/15 04:44:56;;;;;;;58.60;29.40;;;;;;;-1.81;66.40;101880.95;84764;1327;22599;-75
2022/03/15 04:47:09;;;;;;;52.40;28.80;;;;;;;-1.79;66.42;101880.31;84763;1327;22674;-76
2022/03/15 04:49:18;;;;;;;56.90;30.00;;;;;;;-1.77;66.37;101886.41;84826;1326;22605;-76
2022/03/15 04:51:26;;;;;;;60.30;30.40;;;;;;;-1.75;66.44;101884.58;84790;1327;22613;-76
2022/03/15 04:53:35;;;;;;;61.60;32.50;;;;;;;-1.75;66.47;101884.08;84773;1326;22569;-76
2022/03/15 04:55:47;;;;;;;53.30;30.50;;;;;;;-1.74;66.37;101885.46;84809;1326;22539;-70
2022/03/15 04:57:55;;;;;;;51.70;28.50;;;;;;;-1.73;66.29;101886.51;84731;1327;22621;-69
2022/03/15 05:00:09;;;;;;;63.10;31.50;;;;;;;-1.75;66.35;101882.54;84762;1326;22580;-69
2022/03/15 05:02:17;;;;;;;60.00;31.70;;;;;;;-1.77;66.38;101883.48;84671;1330;24816;-75
2022/03/15 05:04:27;;;;;;;62.20;30.50;;;;;;;-1.79;66.46;101880.66;84737;1327;22600;-74
2022/03/15 05:06:39;;;;;;;56.90;29.70;;;;;;;-1.80;66.65;101884.23;84794;1326;22619;-74
2022/03/15 05:08:48;;;;;;;58.30;31.10;;;;;;;-1.82;66.62;101881.26;84763;1326;22584;-76
2022/03/15 05:11:09;;;;;;;57.20;32.00;;;;;;;-1.84;66.73;101880.67;84062;1322;1003001;-74
2022/03/15 05:13:20;;;;;;;56.20;31.60;;;;;;;-1.86;66.83;101884.71;84761;1326;23986;-76
2022/03/15 05:15:28;;;;;;;61.10;29.90;;;;;;;-1.87;66.70;101885.04;84770;1327;25495;-76
2022/03/15 05:17:37;;;;;;;55.70;29.10;;;;;;;-1.85;66.93;101885.09;84763;1327;25427;-75
2022/03/15 05:19:45;;;;;;;55.30;30.60;;;;;;;-1.84;66.95;101884.08;84782;1326;22628;-75
2022/03/15 05:21:54;;;;;;;51.90;26.50;;;;;;;-1.82;67.29;101881.61;84769;1327;22587;-75
2022/03/15 05:24:07;;;;;;;54.20;29.50;;;;;;;-1.78;67.21;101878.66;84774;1327;23899;-75
2022/03/15 05:26:19;;;;;;;52.50;28.30;;;;;;;-1.71;67.37;101876.34;84759;1326;22619;-75
2022/03/15 05:28:27;;;;;;;51.30;28.80;;;;;;;-1.65;67.33;101875.36;84804;1327;25291;-76
2022/03/15 05:30:39;;;;;;;53.30;28.20;;;;;;;-1.60;67.55;101872.66;84794;1326;26480;-68
2022/03/15 05:32:47;;;;;;;58.40;29.60;;;;;;;-1.52;67.56;101874.26;84722;1330;22622;-69
2022/03/15 05:34:59;;;;;;;56.00;30.10;;;;;;;-1.46;67.46;101877.94;84768;1326;22673;-70
2022/03/15 05:37:09;;;;;;;54.60;30.50;;;;;;;-1.37;67.50;101885.08;84744;1324;24520;-70
2022/03/15 05:39:17;;;;;;;62.50;31.60;;;;;;;-1.25;67.46;101882.74;84784;1326;24981;-70
2022/03/15 05:41:26;;;;;;;50.40;29.40;;;;;;;-1.16;67.23;101881.17;84758;1327;24780;-69
2022/03/15 05:43:37;;;;;;;53.40;29.00;;;;;;;-1.06;67.10;101884.94;84776;1327;23956;-69
2022/03/15 05:45:50;;;;;;;58.90;30.00;;;;;;;-0.94;67.05;101887.91;84074;1327;1003423;-75
2022/03/15 05:47:58;;;;;;;56.70;28.90;;;;;;;-0.81;66.91;101887.48;84765;1327;22593;-75
2022/03/15 05:50:08;;;;;;;59.30;30.00;;;;;;;-0.64;66.93;101883.40;84791;1327;22583;-70
2022/03/15 05:52:19;;;;;;;50.50;28.00;;;;;;;-0.28;67.27;101879.73;84758;1326;22736;-69
2022/03/15 05:54:33;;;;;;;53.10;29.30;;;;;;;0.33;67.27;101881.18;84702;1328;25305;-73
2022/03/15 05:56:42;;;;;;;55.70;28.80;;;;;;;1.20;66.79;101870.20;84657;1326;25265;-72
2022/03/15 05:58:54;;;;;;;50.70;27.50;;;;;;;2.17;66.66;101861.02;84753;1327;22895;-73
2022/03/15 06:01:05;;;;;;;47.50;26.50;;;;;;;3.17;65.32;101863.02;84738;1327;23064;-75
2022/03/15 06:03:15;;;;;;;48.90;28.40;;;;;;;4.13;64.09;101864.23;84725;1324;22935;-75
2022/03/15 06:05:22;;;;;;;48.00;25.20;;;;;;;5.06;62.07;101868.48;84723;1330;22861;-75
2022/03/15 06:07:29;;;;;;;44.50;27.80;;;;;;;5.90;59.33;101867.87;84792;1327;24363;-75
2022/03/15 06:09:36;;;;;;;51.30;26.30;;;;;;;6.63;57.57;101859.67;84753;1327;23266;-75
2022/03/15 06:11:45;;;;;;;51.20;27.70;;;;;;;7.38;56.21;101861.09;84771;1326;22775;-74
2022/03/15 06:13:52;;;;;;;45.30;26.70;;;;;;;8.17;54.01;101862.98;84789;1326;22552;-69
2022/03/15 06:15:59;;;;;;;46.10;26.50;;;;;;;8.89;51.81;101862.61;84735;1330;22619;-69
2022/03/15 06:18:08;;;;;;;45.20;25.20;;;;;;;9.51;50.25;101862.44;84783;1330;22572;-70
2022/03/15 06:20:17;;;;;;;41.80;26.40;;;;;;;10.00;47.46;101868.88;84647;1328;22827;-73
2022/03/15 06:22:26;;;;;;;41.40;25.70;;;;;;;10.44;45.93;101877.08;84777;1326;22602;-74
2022/03/15 06:24:33;;;;;;;48.30;26.80;;;;;;;10.69;44.82;101879.88;84774;1327;24241;-73
2022/03/15 06:26:41;;;;;;;44.10;25.00;;;;;;;10.80;44.57;101883.20;84731;1326;22759;-73
2022/03/15 06:28:53;;;;;;;44.60;27.40;;;;;;;10.94;43.84;101882.65;84782;1327;24256;-73
2022/03/15 06:31:02;;;;;;;45.70;26.00;;;;;;;11.05;43.44;101884.05;84766;1326;22592;-69
2022/03/15 06:33:11;;;;;;;42.20;25.30;;;;;;;11.35;42.76;101883.73;84759;1326;22580;-69
2022/03/15 06:35:19;;;;;;;40.70;26.20;;;;;;;11.50;42.04;101882.95;84789;1326;22593;-68
2022/03/15 06:37:25;;;;;;;43.40;25.50;;;;;;;11.59;41.89;101881.92;84782;1328;22587;-69
2022/03/15 06:39:32;;;;;;;42.70;26.90;;;;;;;11.77;41.52;101882.47;84792;1323;22669;-75
2022/03/15 06:41:39;;;;;;;38.20;26.00;;;;;;;12.08;40.77;101879.61;84773;1330;23787;-74
2022/03/15 06:43:46;;;;;;;41.80;25.70;;;;;;;12.20;40.47;101880.44;84764;1323;23061;-76
2022/03/15 06:45:52;;;;;;;37.70;24.90;;;;;;;12.42;40.32;101879.09;84750;1327;22610;-75
2022/03/15 06:47:59;;;;;;;41.50;27.20;;;;;;;12.74;40.12;101876.26;84737;1327;22631;-69
2022/03/15 06:50:08;;;;;;;42.50;24.10;;;;;;;13.01;39.28;101876.33;84753;1327;22619;-71
2022/03/15 06:52:15;;;;;;;37.40;25.20;;;;;;;12.80;38.84;101877.17;84764;1318;22890;-71
2022/03/15 06:54:22;;;;;;;41.30;24.90;;;;;;;12.35;38.60;101883.78;84776;1328;25094;-75
2022/03/15 06:56:34;;;;;;;37.90;24.00;;;;;;;11.83;38.86;101882.70;84778;1322;22799;-74
2022/03/15 06:58:44;;;;;;;39.90;24.60;;;;;;;11.46;39.59;101887.89;84770;1327;25432;-75
2022/03/15 07:00:55;;;;;;;46.20;25.00;;;;;;;11.77;40.17;101888.58;84769;1326;22624;-71
2022/03/15 07:03:01;;;;;;;33.90;23.90;;;;;;;12.38;40.38;101886.17;84738;1327;22917;-75
2022/03/15 07:05:11;;;;;;;36.20;24.20;;;;;;;13.09;39.53;101882.61;84719;1327;22614;-76
2022/03/15 07:07:21;;;;;;;36.00;23.30;;;;;;;13.70;38.78;101882.83;84744;1327;25253;-75
2022/03/15 07:09:30;;;;;;;39.40;23.50;;;;;;;14.08;37.64;101878.45;84785;1326;22584;-71
2022/03/15 07:11:39;;;;;;;35.30;23.50;;;;;;;14.31;36.72;101878.86;84754;1330;22886;-71
2022/03/15 07:13:49;;;;;;;37.40;23.70;;;;;;;14.37;36.20;101875.16;84764;1326;22596;-69
2022/03/15 07:15:56;;;;;;;63.00;39.50;;;;;;;14.30;36.83;101883.59;84719;1327;22767;-77
2022/03/15 07:18:03;;;;;;;46.60;30.40;;;;;;;14.33;37.00;101883.35;84718;1324;22629;-70
2022/03/15 07:20:11;;;;;;;38.30;24.60;;;;;;;14.64;37.11;101886.50;84745;1327;25310;-70
2022/03/15 07:22:18;;;;;;;35.90;24.30;;;;;;;15.00;36.51;101886.39;84734;1324;22715;-71
2022/03/15 07:24:24;;;;;;;35.90;22.90;;;;;;;15.37;35.68;101889.08;84748;1327;24050;-75
2022/03/15 07:26:33;;;;;;;29.80;21.50;;;;;;;15.77;35.33;101890.67;84787;1325;22595;-74
2022/03/15 07:28:39;;;;;;;34.80;23.70;;;;;;;16.12;34.56;101888.02;84722;1327;24930;-76
2022/03/15 07:30:49;;;;;;;28.30;21.10;;;;;;;16.32;33.95;101895.90;84759;1327;22866;-75
2022/03/15 07:32:59;;;;;;;35.10;22.80;;;;;;;16.39;33.49;101895.27;84749;1327;22847;-70
2022/03/15 07:35:07;;;;;;;30.40;20.20;;;;;;;16.18;33.79;101894.67;84727;1327;22745;-75
2022/03/15 07:37:17;;;;;;;34.90;20.90;;;;;;;16.17;34.04;101896.46;84769;1318;22598;-74
2022/03/15 07:39:23;;;;;;;32.80;21.70;;;;;;;16.56;34.17;101891.09;84738;1327;24231;-75
2022/03/15 07:41:32;;;;;;;29.10;19.90;;;;;;;17.10;33.59;101890.02;84772;1322;22599;-83
2022/03/15 07:43:39;;;;;;;29.20;21.10;;;;;;;17.47;32.44;101893.92;84659;1330;22596;-76
2022/03/15 07:45:47;;;;;;;;;;;;;;;17.81;32.32;101894.27;84331;1327;653996;-75
2022/03/15 07:47:57;;;;;;;30.20;21.90;;;;;;;18.31;31.79;101891.33;84743;1329;23942;-76
2022/03/15 07:50:04;;;;;;;27.60;20.50;;;;;;;18.79;31.04;101896.48;84758;1324;23972;-71
2022/03/15 07:52:13;;;;;;;31.10;22.00;;;;;;;19.19;30.52;101897.59;84762;1327;22580;-70
2022/03/15 07:54:20;;;;;;;30.50;22.20;;;;;;;19.63;29.89;101898.72;84747;1321;22835;-71
2022/03/15 07:56:27;;;;;;;27.00;20.90;;;;;;;20.07;29.44;101900.48;84682;1329;22596;-69
2022/03/15 07:58:34;;;;;;;32.60;21.80;;;;;;;20.33;28.51;101899.93;84721;1327;25409;-71
2022/03/15 08:00:41;;;;;;;30.50;22.90;;;;;;;20.57;28.23;101901.88;84794;1323;22629;-72
2022/03/15 08:02:52;;;;;;;36.10;24.40;;;;;;;20.84;27.74;101901.21;84677;1329;24206;-75
2022/03/15 08:05:03;;;;;;;30.40;21.70;;;;;;;21.22;27.59;101905.95;84721;1327;22591;-75
2022/03/15 08:07:10;;;;;;;28.90;21.10;;;;;;;21.59;27.02;101898.96;84781;1326;24412;-76
2022/03/15 08:09:17;;;;;;;27.90;21.80;;;;;;;21.82;26.75;101897.80;84763;1327;22570;-70
2022/03/15 08:11:25;;;;;;;31.10;21.00;;;;;;;21.98;26.23;101891.48;84757;1327;22930;-70
2022/03/15 08:13:32;;;;;;;27.60;20.40;;;;;;;22.14;26.23;101894.60;84784;1328;22873;-70
2022/03/15 08:15:38;;;;;;;25.50;21.70;;;;;;;22.31;25.90;101894.93;84705;1330;22706;-75
2022/03/15 08:17:45;;;;;;;33.10;22.60;;;;;;;22.47;25.63;101897.69;84701;1327;22860;-76
2022/03/15 08:19:54;;;;;;;29.40;21.70;;;;;;;22.54;25.30;101897.20;84743;1327;22600;-75
2022/03/15 08:22:06;;;;;;;31.90;21.10;;;;;;;22.60;24.99;101900.92;84760;1326;25505;-70
2022/03/15 08:24:16;;;;;;;29.70;20.80;;;;;;;22.60;24.96;101903.41;84644;1329;22731;-70
2022/03/15 08:26:28;;;;;;;26.80;20.80;;;;;;;22.54;25.15;101905.58;84718;1327;22630;-71
2022/03/15 08:28:40;;;;;;;32.40;21.40;;;;;;;22.23;24.99;101901.45;84780;1327;24389;-75
2022/03/15 08:30:51;;;;;;;30.00;21.10;;;;;;;21.59;25.29;101905.70;84771;1326;22585;-72
2022/03/15 08:32:59;;;;;;;27.50;21.20;;;;;;;20.88;25.91;101902.39;84745;1324;22854;-69
2022/03/15 08:35:09;;;;;;;25.80;19.90;;;;;;;20.38;26.69;101898.08;84767;1327;22593;-74
2022/03/15 08:37:21;;;;;;;30.40;20.80;;;;;;;19.93;27.32;101895.55;84764;1327;25447;-77
2022/03/15 08:39:29;;;;;;;27.70;19.80;;;;;;;19.49;27.78;101893.04;84725;1327;22809;-75
2022/03/15 08:41:38;;;;;;;27.50;20.40;;;;;;;19.13;28.49;101887.79;84777;1328;22589;-75
2022/03/15 08:43:50;;;;;;;23.80;19.70;;;;;;;19.05;28.76;101890.13;84721;1326;22978;-76
2022/03/15 08:46:02;;;;;;;24.80;19.20;;;;;;;19.16;28.95;101884.64;84752;1328;22796;-71
2022/03/15 08:48:13;;;;;;;26.80;19.80;;;;;;;19.07;28.90;101884.33;84782;1325;22630;-70
2022/03/15 08:50:21;;;;;;;25.50;19.80;;;;;;;18.72;29.20;101883.25;84714;1330;22598;-71
2022/03/15 08:52:30;;;;;;;27.10;19.00;;;;;;;18.45;29.88;101875.27;84751;1326;22589;-71
2022/03/15 08:54:41;;;;;;;25.30;20.40;;;;;;;18.37;30.23;101878.15;84804;1326;22690;-73
2022/03/15 08:56:53;;;;;;;25.00;19.90;;;;;;;18.55;30.34;101876.23;84721;1328;24369;-76
2022/03/15 08:59:04;;;;;;;28.40;19.20;;;;;;;18.82;30.65;101870.73;84716;1327;22729;-70
2022/03/15 09:01:16;;;;;;;27.70;19.90;;;;;;;19.49;30.44;101866.14;84748;1325;23044;-70
2022/03/15 09:03:25;;;;;;;25.80;19.40;;;;;;;20.12;29.76;101866.16;84745;1328;26493;-70
2022/03/15 09:05:36;;;;;;;24.70;19.20;;;;;;;20.53;28.91;101861.29;84771;1326;22639;-72
2022/03/15 09:07:45;;;;;;;29.00;19.00;;;;;;;20.77;28.67;101864.88;84790;1326;24265;-72
2022/03/15 09:09:56;;;;;;;25.70;19.70;;;;;;;21.03;28.97;101856.33;84818;1329;22573;-71
2022/03/15 09:12:05;;;;;;;26.70;20.30;;;;;;;21.34;28.06;101856.98;84742;1320;23978;-70
2022/03/15 09:14:13;;;;;;;25.30;19.60;;;;;;;21.68;28.04;101856.91;84767;1329;22707;-75
2022/03/15 09:16:21;;;;;;;23.40;18.10;;;;;;;21.92;27.53;101858.81;84750;1326;25343;-76
2022/03/15 09:18:30;;;;;;;23.50;18.60;;;;;;;22.00;27.22;101858.27;84774;1327;22610;-76
2022/03/15 09:20:42;;;;;;;23.60;17.80;;;;;;;21.85;27.77;101854.98;84795;1327;22682;-76
2022/03/15 09:22:54;;;;;;;23.50;17.30;;;;;;;22.02;27.49;101854.08;84736;1329;24393;-75
2022/03/15 09:25:07;;;;;;;24.90;17.70;;;;;;;21.88;27.36;101854.98;84780;1327;25438;-75
2022/03/15 09:27:15;;;;;;;24.50;17.60;;;;;;;21.62;27.96;101855.84;84716;1328;22584;-75
2022/03/15 09:29:26;;;;;;;22.40;17.00;;;;;;;21.50;27.82;101858.54;84732;1327;25598;-75
2022/03/15 09:31:34;;;;;;;28.00;17.60;;;;;;;21.32;28.18;101860.61;84760;1322;22597;-76
2022/03/15 09:33:43;;;;;;;25.20;19.10;;;;;;;21.21;28.26;101859.16;84761;1326;22887;-75
2022/03/15 09:35:55;;;;;;;25.40;17.60;;;;;;;20.95;28.18;101857.98;84762;1326;25312;-71
2022/03/15 09:38:03;;;;;;;26.70;16.60;;;;;;;20.64;28.82;101857.28;84760;1326;24145;-70
2022/03/15 09:40:14;;;;;;;19.70;16.30;;;;;;;20.27;29.31;101862.54;84729;1322;22837;-71
2022/03/15 09:42:23;;;;;;;18.80;15.00;;;;;;;19.86;30.78;101871.11;84736;1325;22596;-71
2022/03/15 09:44:35;;;;;;;20.50;16.50;;;;;;;19.39;31.77;101873.16;84780;1326;24135;-71
2022/03/15 09:46:50;;;;;;;22.20;16.40;;;;;;;18.98;32.65;101874.38;84733;1327;24223;-71
2022/03/15 09:48:59;;;;;;;21.10;17.70;;;;;;;18.63;32.79;101876.06;84777;1326;25291;-76
2022/03/15 09:51:12;;;;;;;21.50;17.40;;;;;;;18.40;33.02;101871.48;84759;1324;22831;-78